createdAt,value
2023-03-01T00:01:51.825Z,-23667.94
2023-03-01T00:08:15.087Z,-23667.47
2023-03-01T00:10:49.223Z,-23666.30
2023-03-01T00:13:18.349Z,-23665.76
2023-03-01T00:15:47.690Z,-23665.60
2023-03-01T00:18:15.972Z,-23665.16
2023-03-01T00:20:51.106Z,-23665.13
2023-03-01T00:23:19.954Z,-23665.20
2023-03-01T00:25:48.545Z,-23665.32
2023-03-01T00:28:17.199Z,-23665.54
2023-03-01T00:30:45.398Z,-23665.86
2023-03-01T00:33:14.077Z,-23666.08
2023-03-01T00:35:42.824Z,-23666.08
2023-03-01T00:38:11.514Z,-23666.04
2023-03-01T00:40:39.645Z,-23666.14
2023-03-01T00:43:11.362Z,-23666.46
2023-03-01T00:45:39.614Z,-23666.74
2023-03-01T00:48:08.059Z,-23666.71
2023-03-01T00:50:37.594Z,-23666.65
2023-03-01T00:53:06.350Z,-23666.61
2023-03-01T00:55:35.060Z,-23666.61
2023-03-01T00:58:03.840Z,-23666.68
2023-03-01T01:00:36.211Z,-23666.81
2023-03-01T01:03:04.469Z,-23667.25
2023-03-01T01:05:35.796Z,-23667.91
2023-03-01T01:08:04.674Z,-23668.57
2023-03-01T01:10:35.561Z,-23669.05
2023-03-01T01:13:06.001Z,-23669.36
2023-03-01T01:15:35.364Z,-23669.87
2023-03-01T01:18:04.077Z,-23670.28
2023-03-01T01:20:34.638Z,-23670.63
2023-03-01T01:23:03.194Z,-23670.97
2023-03-01T01:25:35.979Z,-23670.91
2023-03-01T01:28:04.675Z,-23670.82
2023-03-01T01:30:33.426Z,-23670.38
2023-03-01T01:33:02.073Z,-23670.28
2023-03-01T01:35:30.808Z,-23670.06
2023-03-01T01:38:02.911Z,-23669.80
2023-03-01T01:40:31.499Z,-23669.87
2023-03-01T01:42:59.661Z,-23669.68
2023-03-01T01:45:29.733Z,-23669.74
2023-03-01T01:48:01.162Z,-23669.68
2023-03-01T01:50:38.888Z,-23669.80
2023-03-01T01:53:13.798Z,-23670.00
2023-03-01T01:55:46.885Z,-23670.00
2023-03-01T01:58:16.798Z,-23669.90
2023-03-01T02:00:46.003Z,-23669.90
2023-03-01T02:03:19.085Z,-23670.22
2023-03-01T02:06:05.356Z,-23670.44
2023-03-01T02:08:35.895Z,-23670.66
2023-03-01T02:11:07.308Z,-23670.72
2023-03-01T02:13:39.496Z,-23670.82
2023-03-01T02:16:11.760Z,-23670.79
2023-03-01T02:18:41.611Z,-23670.91
2023-03-01T02:21:24.752Z,-23671.17
2023-03-01T02:23:56.831Z,-23671.32
2023-03-01T02:26:48.720Z,-23671.48
2023-03-01T02:29:17.041Z,-23671.64
2023-03-01T02:31:46.146Z,-23671.64
2023-03-01T02:34:21.680Z,-23671.61
2023-03-01T02:36:52.208Z,-23671.42
2023-03-01T02:39:27.621Z,-23671.29
2023-03-01T02:41:56.031Z,-23671.32
2023-03-01T02:44:24.799Z,-23671.67
2023-03-01T02:46:55.468Z,-23672.08
2023-03-01T02:49:26.466Z,-23672.49
2023-03-01T02:52:00.997Z,-23672.56
2023-03-01T02:54:32.451Z,-23672.75
2023-03-01T02:57:01.313Z,-23672.84
2023-03-01T02:59:32.919Z,-23672.87
2023-03-01T03:02:01.972Z,-23672.90
2023-03-01T03:04:30.551Z,-23672.78
2023-03-01T03:06:59.536Z,-23672.78
2023-03-01T03:09:27.790Z,-23672.71
2023-03-01T03:11:56.259Z,-23672.75
2023-03-01T03:14:25.490Z,-23672.65
2023-03-01T03:16:53.842Z,-23672.59
2023-03-01T03:19:22.203Z,-23672.78
2023-03-01T03:21:50.632Z,-23673.00
2023-03-01T03:24:21.011Z,-23673.19
2023-03-01T03:26:49.589Z,-23673.32
2023-03-01T03:29:17.731Z,-23673.70
2023-03-01T03:32:05.776Z,-23673.60
2023-03-01T03:34:37.087Z,-23673.44
2023-03-01T03:37:25.364Z,-23672.87
2023-03-01T03:39:55.876Z,-23672.90
2023-03-01T03:42:24.085Z,-23672.27
2023-03-01T03:44:52.235Z,-23671.73
2023-03-01T03:47:21.016Z,-23671.36
2023-03-01T03:49:49.113Z,-23670.97
2023-03-01T03:52:18.069Z,-23671.13
2023-03-01T03:54:46.431Z,-23670.82
2023-03-01T03:57:14.555Z,-23670.19
2023-03-01T03:59:42.834Z,-23669.90
2023-03-01T04:02:14.174Z,-23669.55
2023-03-01T04:04:43.907Z,-23669.27
2023-03-01T04:07:12.044Z,-23669.30
2023-03-01T04:09:40.651Z,-23669.39
2023-03-01T04:12:08.830Z,-23669.39
2023-03-01T04:14:37.454Z,-23669.61
2023-03-01T04:17:06.417Z,-23669.87
2023-03-01T04:19:37.221Z,-23669.93
2023-03-01T04:22:10.399Z,-23670.06
2023-03-01T04:24:38.867Z,-23670.03
2023-03-01T04:27:07.068Z,-23669.90
2023-03-01T04:29:35.287Z,-23669.58
2023-03-01T04:32:04.406Z,-23669.14
2023-03-01T04:34:32.841Z,-23668.83
2023-03-01T04:37:01.669Z,-23668.51
2023-03-01T04:39:30.046Z,-23668.51
2023-03-01T04:41:58.274Z,-23668.73
2023-03-01T04:44:26.522Z,-23668.95
2023-03-01T04:46:54.726Z,-23668.80
2023-03-01T04:49:22.848Z,-23668.89
2023-03-01T04:51:51.451Z,-23668.70
2023-03-01T04:54:22.529Z,-23668.80
2023-03-01T04:56:52.211Z,-23669.02
2023-03-01T04:59:23.572Z,-23669.17
2023-03-01T05:01:52.395Z,-23669.43
2023-03-01T05:04:20.561Z,-23669.68
2023-03-01T05:06:48.791Z,-23670.15
2023-03-01T05:09:17.164Z,-23670.72
2023-03-01T05:11:45.819Z,-23671.23
2023-03-01T05:14:14.664Z,-23672.24
2023-03-01T05:16:43.081Z,-23673.41
2023-03-01T05:19:16.510Z,-23674.17
2023-03-01T05:22:03.364Z,-23674.80
2023-03-01T05:24:36.325Z,-23675.37
2023-03-01T05:27:05.172Z,-23676.13
2023-03-01T05:29:37.074Z,-23676.60
2023-03-01T05:32:05.593Z,-23677.02
2023-03-01T05:34:34.959Z,-23677.39
2023-03-01T05:37:03.515Z,-23677.73
2023-03-01T05:39:32.644Z,-23677.96
2023-03-01T05:42:02.195Z,-23678.53
2023-03-01T05:44:31.468Z,-23679.04
2023-03-01T05:46:59.963Z,-23679.73
2023-03-01T05:49:28.551Z,-23680.46
2023-03-01T05:51:57.012Z,-23680.93
2023-03-01T05:54:25.358Z,-23682.04
2023-03-01T05:56:53.869Z,-23683.20
2023-03-01T05:59:22.042Z,-23683.81
2023-03-01T06:01:51.146Z,-23684.91
2023-03-01T06:04:19.323Z,-23685.35
2023-03-01T06:06:47.712Z,-23685.61
2023-03-01T06:09:20.548Z,-23685.82
2023-03-01T06:11:48.757Z,-23686.11
2023-03-01T06:14:17.022Z,-23686.39
2023-03-01T06:16:49.173Z,-23687.09
2023-03-01T06:19:17.482Z,-23688.20
2023-03-01T06:21:45.603Z,-23689.14
2023-03-01T06:24:14.181Z,-23690.38
2023-03-01T06:26:42.968Z,-23691.99
2023-03-01T06:29:11.262Z,-23693.22
2023-03-01T06:31:40.360Z,-23694.77
2023-03-01T06:34:08.532Z,-23696.50
2023-03-01T06:36:37.124Z,-23698.05
2023-03-01T06:39:08.376Z,-23699.38
2023-03-01T06:41:36.703Z,-23700.67
2023-03-01T06:44:05.162Z,-23702.31
2023-03-01T06:46:34.442Z,-23704.02
2023-03-01T06:49:05.602Z,-23704.93
2023-03-01T06:51:34.049Z,-23705.31
2023-03-01T06:54:02.573Z,-23705.47
2023-03-01T06:56:32.254Z,-23705.75
2023-03-01T06:59:00.749Z,-23706.00
2023-03-01T07:01:29.595Z,-23705.85
2023-03-01T07:03:58.003Z,-23705.94
2023-03-01T07:06:26.186Z,-23705.82
2023-03-01T07:08:55.984Z,-23706.04
2023-03-01T07:11:25.261Z,-23706.38
2023-03-01T07:13:59.679Z,-23706.86
2023-03-01T07:16:28.290Z,-23707.62
2023-03-01T07:18:59.178Z,-23709.07
2023-03-01T07:21:29.896Z,-23710.71
2023-03-01T07:23:58.233Z,-23711.88
2023-03-01T07:26:27.376Z,-23714.02
2023-03-01T07:28:55.583Z,-23717.69
2023-03-01T07:31:24.068Z,-23721.03
2023-03-01T07:33:57.281Z,-23723.37
2023-03-01T07:36:26.538Z,-23725.45
2023-03-01T07:38:57.264Z,-23726.05
2023-03-01T07:41:26.141Z,-23726.49
2023-03-01T07:43:54.442Z,-23727.34
2023-03-01T07:46:22.766Z,-23727.81
2023-03-01T07:48:52.739Z,-23728.29
2023-03-01T07:51:23.265Z,-23728.95
2023-03-01T07:53:52.093Z,-23729.83
2023-03-01T07:56:20.739Z,-23730.81
2023-03-01T07:58:51.004Z,-23732.13
2023-03-01T08:01:21.731Z,-23733.46
2023-03-01T08:03:50.455Z,-23735.54
2023-03-01T08:06:18.976Z,-23736.96
2023-03-01T08:08:48.368Z,-23737.85
2023-03-01T08:11:17.506Z,-23738.76
2023-03-01T08:14:06.884Z,-23740.81
2023-03-01T08:16:40.538Z,-23742.04
2023-03-01T08:19:10.408Z,-23743.33
2023-03-01T08:21:39.049Z,-23743.84
2023-03-01T08:24:11.253Z,-23744.47
2023-03-01T08:26:40.435Z,-23745.57
2023-03-01T08:29:09.209Z,-23747.56
2023-03-01T08:31:40.157Z,-23749.77
2023-03-01T08:34:11.480Z,-23750.36
2023-03-01T08:36:43.586Z,-23750.58
2023-03-01T08:39:14.266Z,-23751.34
2023-03-01T08:41:43.462Z,-23752.29
2023-03-01T08:44:12.724Z,-23754.12
2023-03-01T08:46:42.346Z,-23756.61
2023-03-01T08:49:20.509Z,-23759.06
2023-03-01T08:51:48.888Z,-23760.96
2023-03-01T08:54:19.502Z,-23762.12
2023-03-01T08:56:50.555Z,-23762.69
2023-03-01T08:59:21.272Z,-23764.55
2023-03-01T09:01:50.414Z,-23767.07
2023-03-01T09:04:18.756Z,-23768.87
2023-03-01T09:06:50.719Z,-23769.18
2023-03-01T09:09:19.387Z,-23768.74
2023-03-01T09:11:47.907Z,-23767.79
2023-03-01T09:14:19.896Z,-23768.20
2023-03-01T09:16:49.098Z,-23770.75
2023-03-01T09:19:17.652Z,-23773.37
2023-03-01T09:21:53.685Z,-23776.11
2023-03-01T09:24:22.598Z,-23779.20
2023-03-01T09:26:51.841Z,-23781.21
2023-03-01T09:29:20.818Z,-23781.43
2023-03-01T09:31:52.049Z,-23781.37
2023-03-01T09:34:24.489Z,-23781.37
2023-03-01T09:36:53.150Z,-23782.13
2023-03-01T09:39:21.765Z,-23783.95
2023-03-01T09:41:55.651Z,-23785.65
2023-03-01T09:44:43.066Z,-23786.47
2023-03-01T09:47:15.970Z,-23787.79
2023-03-01T09:49:49.830Z,-23789.75
2023-03-01T09:52:40.109Z,-23792.24
2023-03-01T09:55:16.412Z,-23794.22
2023-03-01T09:57:57.240Z,-23796.20
2023-03-01T10:00:38.323Z,-23798.97
2023-03-01T10:03:32.175Z,-23800.89
2023-03-01T10:06:05.627Z,-23801.77
2023-03-01T10:08:58.175Z,-23801.30
2023-03-01T10:11:41.304Z,-23801.18
2023-03-01T10:14:29.309Z,-23800.99
2023-03-01T10:17:06.120Z,-23800.73
2023-03-01T10:19:43.943Z,-23800.51
2023-03-01T10:22:47.953Z,-23801.43
2023-03-01T10:25:16.799Z,-23803.60
2023-03-01T10:27:55.263Z,-23804.82
2023-03-01T10:30:24.360Z,-23805.68
2023-03-01T10:32:53.517Z,-23807.69
2023-03-01T10:35:24.165Z,-23809.52
2023-03-01T10:37:59.681Z,-23808.86
2023-03-01T10:40:27.898Z,-23808.95
2023-03-01T10:42:59.002Z,-23808.67
2023-03-01T10:45:37.600Z,-23809.45
2023-03-01T10:48:24.844Z,-23809.42
2023-03-01T10:51:00.364Z,-23808.95
2023-03-01T10:53:44.621Z,-23808.07
2023-03-01T10:56:17.042Z,-23807.59
2023-03-01T10:59:05.705Z,-23806.28
2023-03-01T11:01:36.480Z,-23803.69
2023-03-01T11:04:08.777Z,-23801.74
2023-03-01T11:06:38.861Z,-23800.39
2023-03-01T11:09:22.841Z,-23799.19
2023-03-01T11:11:58.926Z,-23798.47
2023-03-01T11:14:32.266Z,-23798.28
2023-03-01T11:17:05.109Z,-23798.09
2023-03-01T11:19:33.997Z,-23798.12
2023-03-01T11:22:12.298Z,-23798.31
2023-03-01T11:24:43.673Z,-23798.91
2023-03-01T11:27:19.872Z,-23799.88
2023-03-01T11:29:53.125Z,-23801.49
2023-03-01T11:32:21.454Z,-23802.12
2023-03-01T11:34:54.691Z,-23802.53
2023-03-01T11:37:29.984Z,-23802.50
2023-03-01T11:40:19.050Z,-23802.78
2023-03-01T11:43:17.562Z,-23802.59
2023-03-01T11:46:26.843Z,-23802.28
2023-03-01T11:49:13.591Z,-23801.49
2023-03-01T11:52:13.688Z,-23801.65
2023-03-01T11:55:01.487Z,-23802.15
2023-03-01T11:57:45.104Z,-23801.80
2023-03-01T12:00:54.848Z,-23801.83
2023-03-01T12:03:42.642Z,-23802.25
2023-03-01T12:06:24.131Z,-23802.94
2023-03-01T12:09:15.411Z,-23803.97
2023-03-01T12:12:05.917Z,-23805.77
2023-03-01T12:14:53.276Z,-23807.97
2023-03-01T12:17:56.947Z,-23809.55
2023-03-01T12:21:03.310Z,-23810.40
2023-03-01T12:23:35.028Z,-23811.37
2023-03-01T12:26:09.206Z,-23811.97
2023-03-01T12:29:02.199Z,-23812.50
2023-03-01T12:32:04.452Z,-23812.94
2023-03-01T12:34:37.406Z,-23812.29
2023-03-01T12:37:18.903Z,-23812.44
2023-03-01T12:40:22.012Z,-23812.44
2023-03-01T12:43:00.145Z,-23811.78
2023-03-01T12:45:58.085Z,-23811.88
2023-03-01T12:49:11.238Z,-23811.72
2023-03-01T12:51:40.786Z,-23810.46
2023-03-01T12:54:29.195Z,-23810.24
2023-03-01T12:56:58.763Z,-23809.61
2023-03-01T12:59:34.125Z,-23809.29
2023-03-01T13:02:28.720Z,-23809.51
2023-03-01T13:05:15.130Z,-23809.71
2023-03-01T13:08:14.682Z,-23809.96
2023-03-01T13:10:50.835Z,-23809.77
2023-03-01T13:13:27.298Z,-23809.26
2023-03-01T13:15:56.187Z,-23808.89
2023-03-01T13:18:26.754Z,-23808.67
2023-03-01T13:20:56.111Z,-23808.54
2023-03-01T13:23:27.980Z,-23808.48
2023-03-01T13:26:00.279Z,-23808.82
2023-03-01T13:28:35.276Z,-23809.07
2023-03-01T13:31:08.178Z,-23809.89
2023-03-01T13:33:45.528Z,-23810.27
2023-03-01T13:36:31.029Z,-23809.01
2023-03-01T13:39:04.071Z,-23807.82
2023-03-01T13:41:44.530Z,-23807.09
2023-03-01T13:44:22.830Z,-23805.71
2023-03-01T13:46:57.560Z,-23804.79
2023-03-01T13:49:41.069Z,-23804.42
2023-03-01T13:53:01.337Z,-23803.91
2023-03-01T13:55:38.264Z,-23803.82
2023-03-01T13:58:33.641Z,-23803.03
2023-03-01T14:01:04.352Z,-23801.90
2023-03-01T14:03:34.288Z,-23800.96
2023-03-01T14:06:21.088Z,-23801.05
2023-03-01T14:08:51.180Z,-23801.05
2023-03-01T14:11:28.602Z,-23800.42
2023-03-01T14:14:31.235Z,-23799.85
2023-03-01T14:17:09.724Z,-23800.58
2023-03-01T14:19:37.952Z,-23801.24
2023-03-01T14:22:23.759Z,-23801.46
2023-03-01T14:24:53.190Z,-23801.64
2023-03-01T14:27:21.590Z,-23801.58
2023-03-01T14:30:17.256Z,-23801.30
2023-03-01T14:32:55.980Z,-23801.39
2023-03-01T14:35:51.244Z,-23801.46
2023-03-01T14:38:30.350Z,-23801.61
2023-03-01T14:41:00.724Z,-23801.46
2023-03-01T14:43:29.016Z,-23801.78
2023-03-01T14:46:06.654Z,-23802.34
2023-03-01T14:48:35.533Z,-23802.75
2023-03-01T14:51:04.042Z,-23802.75
2023-03-01T14:53:42.759Z,-23803.13
2023-03-01T14:56:18.665Z,-23803.79
2023-03-01T14:58:54.558Z,-23804.07
2023-03-01T15:01:22.757Z,-23804.45
2023-03-01T15:03:51.560Z,-23804.51
2023-03-01T15:06:21.667Z,-23804.79
2023-03-01T15:08:52.011Z,-23805.30
2023-03-01T15:11:26.122Z,-23805.30
2023-03-01T15:13:55.910Z,-23805.18
2023-03-01T15:16:25.486Z,-23804.98
2023-03-01T15:19:17.100Z,-23804.89
2023-03-01T15:21:46.641Z,-23804.86
2023-03-01T15:24:21.868Z,-23804.48
2023-03-01T15:26:56.333Z,-23804.38
2023-03-01T15:29:30.965Z,-23804.20
2023-03-01T15:31:59.965Z,-23803.91
2023-03-01T15:34:40.488Z,-23803.50
2023-03-01T15:37:38.266Z,-23803.28
2023-03-01T15:40:34.536Z,-23802.69
2023-03-01T15:43:05.197Z,-23802.91
2023-03-01T15:45:39.583Z,-23803.25
2023-03-01T15:48:16.469Z,-23802.97
2023-03-01T15:50:45.247Z,-23802.21
2023-03-01T15:53:15.576Z,-23800.96
2023-03-01T15:55:45.003Z,-23800.01
2023-03-01T15:58:25.067Z,-23799.54
2023-03-01T16:01:01.226Z,-23799.35
2023-03-01T16:03:30.510Z,-23799.47
2023-03-01T16:05:59.172Z,-23799.60
2023-03-01T16:08:27.436Z,-23799.32
2023-03-01T16:10:57.304Z,-23798.75
2023-03-01T16:13:28.316Z,-23797.68
2023-03-01T16:16:04.531Z,-23796.61
2023-03-01T16:18:33.116Z,-23795.64
2023-03-01T16:21:01.983Z,-23794.88
2023-03-01T16:23:31.519Z,-23794.25
2023-03-01T16:26:00.879Z,-23793.71
2023-03-01T16:28:30.786Z,-23793.34
2023-03-01T16:30:59.980Z,-23792.68
2023-03-01T16:33:32.863Z,-23792.18
2023-03-01T16:36:11.026Z,-23792.05
2023-03-01T16:38:39.824Z,-23792.27
2023-03-01T16:41:12.409Z,-23792.55
2023-03-01T16:43:42.189Z,-23792.55
2023-03-01T16:46:14.762Z,-23792.58
2023-03-01T16:48:43.406Z,-23792.74
2023-03-01T16:51:13.062Z,-23792.68
2023-03-01T16:53:47.837Z,-23792.49
2023-03-01T16:56:19.588Z,-23792.55
2023-03-01T16:58:47.946Z,-23792.11
2023-03-01T17:01:25.663Z,-23791.61
2023-03-01T17:03:54.402Z,-23791.04
2023-03-01T17:06:24.580Z,-23790.94
2023-03-01T17:08:53.505Z,-23790.72
2023-03-01T17:11:21.931Z,-23790.22
2023-03-01T17:13:56.682Z,-23789.53
2023-03-01T17:16:25.537Z,-23789.25
2023-03-01T17:18:54.149Z,-23788.61
2023-03-01T17:21:22.519Z,-23788.20
2023-03-01T17:23:52.343Z,-23787.83
2023-03-01T17:26:20.687Z,-23787.42
2023-03-01T17:28:52.010Z,-23787.07
2023-03-01T17:31:20.607Z,-23786.94
2023-03-01T17:33:50.128Z,-23786.79
2023-03-01T17:36:19.107Z,-23786.82
2023-03-01T17:38:47.949Z,-23786.54
2023-03-01T17:41:19.225Z,-23785.18
2023-03-01T17:43:49.145Z,-23783.39
2023-03-01T17:46:17.548Z,-23782.03
2023-03-01T17:48:50.243Z,-23780.99
2023-03-01T17:51:43.216Z,-23779.80
2023-03-01T17:54:12.572Z,-23778.82
2023-03-01T17:56:42.779Z,-23777.66
2023-03-01T17:59:17.934Z,-23776.46
2023-03-01T18:01:46.391Z,-23774.82
2023-03-01T18:04:14.803Z,-23773.37
2023-03-01T18:06:43.768Z,-23772.04
2023-03-01T18:09:12.347Z,-23770.85
2023-03-01T18:11:42.779Z,-23769.69
2023-03-01T18:14:12.391Z,-23768.49
2023-03-01T18:16:40.582Z,-23767.67
2023-03-01T18:19:12.425Z,-23766.82
2023-03-01T18:21:41.414Z,-23766.03
2023-03-01T18:24:09.570Z,-23765.11
2023-03-01T18:26:39.909Z,-23764.07
2023-03-01T18:29:08.614Z,-23763.44
2023-03-01T18:31:41.991Z,-23762.88
2023-03-01T18:34:10.957Z,-23761.99
2023-03-01T18:36:41.363Z,-23760.58
2023-03-01T18:39:09.763Z,-23759.41
2023-03-01T18:41:37.933Z,-23758.34
2023-03-01T18:44:06.948Z,-23757.42
2023-03-01T18:46:37.939Z,-23756.76
2023-03-01T18:49:07.008Z,-23755.79
2023-03-01T18:51:36.847Z,-23755.57
2023-03-01T18:54:11.262Z,-23754.71
2023-03-01T18:56:40.645Z,-23753.42
2023-03-01T18:59:09.131Z,-23751.91
2023-03-01T19:01:38.221Z,-23750.64
2023-03-01T19:04:06.799Z,-23749.86
2023-03-01T19:06:35.567Z,-23749.01
2023-03-01T19:09:08.047Z,-23748.06
2023-03-01T19:11:36.547Z,-23747.18
2023-03-01T19:14:05.986Z,-23746.42
2023-03-01T19:16:35.122Z,-23745.92
2023-03-01T19:19:05.198Z,-23745.19
2023-03-01T19:21:34.219Z,-23744.60
2023-03-01T19:24:03.062Z,-23743.96
2023-03-01T19:26:32.202Z,-23743.36
2023-03-01T19:29:06.646Z,-23742.20
2023-03-01T19:31:35.730Z,-23741.47
2023-03-01T19:34:12.572Z,-23740.78
2023-03-01T19:36:43.456Z,-23740.08
2023-03-01T19:39:14.116Z,-23739.48
2023-03-01T19:41:43.512Z,-23739.11
2023-03-01T19:44:13.917Z,-23739.17
2023-03-01T19:46:44.091Z,-23738.73
2023-03-01T19:49:12.462Z,-23738.32
2023-03-01T19:51:40.977Z,-23737.69
2023-03-01T19:54:10.183Z,-23737.15
2023-03-01T19:56:39.116Z,-23736.58
2023-03-01T19:59:07.748Z,-23735.98
2023-03-01T20:01:38.025Z,-23735.76
2023-03-01T20:04:09.693Z,-23735.23
2023-03-01T20:06:39.241Z,-23735.20
2023-03-01T20:09:20.362Z,-23735.13
2023-03-01T20:11:52.271Z,-23735.07
2023-03-01T20:14:27.301Z,-23735.10
2023-03-01T20:16:56.009Z,-23734.94
2023-03-01T20:19:24.993Z,-23734.72
2023-03-01T20:21:56.665Z,-23734.57
2023-03-01T20:24:26.168Z,-23734.60
2023-03-01T20:26:54.474Z,-23734.47
2023-03-01T20:29:23.110Z,-23734.44
2023-03-01T20:31:51.938Z,-23734.31
2023-03-01T20:34:24.858Z,-23734.60
2023-03-01T20:36:53.530Z,-23734.85
2023-03-01T20:39:26.624Z,-23734.98
2023-03-01T20:41:58.118Z,-23735.04
2023-03-01T20:44:28.014Z,-23735.29
2023-03-01T20:46:57.365Z,-23735.23
2023-03-01T20:49:26.340Z,-23735.29
2023-03-01T20:51:54.698Z,-23735.73
2023-03-01T20:54:27.985Z,-23735.95
2023-03-01T20:56:57.330Z,-23736.27
2023-03-01T20:59:26.142Z,-23736.43
2023-03-01T21:01:56.131Z,-23737.09
2023-03-01T21:04:24.716Z,-23737.09
2023-03-01T21:06:54.331Z,-23737.12
2023-03-01T21:09:22.779Z,-23737.37
2023-03-01T21:11:53.110Z,-23738.10
2023-03-01T21:14:22.742Z,-23738.73
2023-03-01T21:16:51.060Z,-23739.17
2023-03-01T21:19:22.804Z,-23740.15
2023-03-01T21:21:51.979Z,-23740.65
2023-03-01T21:24:22.779Z,-23740.90
2023-03-01T21:26:51.452Z,-23741.25
2023-03-01T21:29:19.711Z,-23741.63
2023-03-01T21:31:48.142Z,-23741.66
2023-03-01T21:34:16.550Z,-23742.07
2023-03-01T21:36:45.038Z,-23742.77
2023-03-01T21:39:14.941Z,-23743.58
2023-03-01T21:41:43.132Z,-23744.25
2023-03-01T21:44:11.569Z,-23744.75
2023-03-01T21:46:40.149Z,-23745.35
2023-03-01T21:49:09.996Z,-23745.89
2023-03-01T21:51:38.269Z,-23746.52
2023-03-01T21:54:12.635Z,-23747.31
2023-03-01T21:56:41.657Z,-23748.13
2023-03-01T21:59:18.733Z,-23748.85
2023-03-01T22:01:48.196Z,-23749.77
2023-03-01T22:04:16.948Z,-23750.43
2023-03-01T22:06:46.594Z,-23751.18
2023-03-01T22:09:17.341Z,-23752.22
2023-03-01T22:11:51.780Z,-23753.14
2023-03-01T22:14:21.395Z,-23754.24
2023-03-01T22:16:51.691Z,-23754.93
2023-03-01T22:19:21.463Z,-23755.66
2023-03-01T22:21:52.012Z,-23756.92
2023-03-01T22:24:23.073Z,-23757.65
2023-03-01T22:26:52.151Z,-23758.12
2023-03-01T22:29:23.789Z,-23758.62
2023-03-01T22:31:53.000Z,-23758.97
2023-03-01T22:34:22.747Z,-23759.00
2023-03-01T22:36:53.509Z,-23759.29
2023-03-01T22:39:22.603Z,-23759.57
2023-03-01T22:41:51.422Z,-23759.63
2023-03-01T22:44:20.906Z,-23759.88
2023-03-01T22:46:51.724Z,-23759.73
2023-03-01T22:49:20.609Z,-23759.76
2023-03-01T22:51:49.076Z,-23760.01
2023-03-01T22:54:17.928Z,-23759.95
2023-03-01T22:56:46.759Z,-23760.01
2023-03-01T22:59:15.942Z,-23760.16
2023-03-01T23:01:48.148Z,-23760.01
2023-03-01T23:04:18.414Z,-23760.01
2023-03-01T23:06:56.132Z,-23760.20
2023-03-01T23:09:32.887Z,-23760.26
2023-03-01T23:12:02.611Z,-23760.04
2023-03-01T23:14:37.485Z,-23760.01
2023-03-01T23:17:08.114Z,-23759.98
2023-03-01T23:19:36.332Z,-23760.23
2023-03-01T23:22:05.036Z,-23760.73
2023-03-01T23:24:34.056Z,-23760.77
2023-03-01T23:27:02.726Z,-23760.58
2023-03-01T23:29:32.400Z,-23760.51
2023-03-01T23:32:00.708Z,-23760.36
2023-03-01T23:34:29.233Z,-23760.86
2023-03-01T23:36:58.824Z,-23760.64
2023-03-01T23:39:27.892Z,-23760.42
2023-03-01T23:41:56.982Z,-23760.70
2023-03-01T23:44:27.850Z,-23760.80
2023-03-01T23:46:56.138Z,-23760.39
2023-03-01T23:49:25.005Z,-23759.85
2023-03-01T23:51:53.362Z,-23759.54
2023-03-01T23:54:22.790Z,-23759.41
2023-03-01T23:56:52.253Z,-23759.19
2023-03-01T23:59:22.542Z,-23759.03
